Fly Briefing / 飞行简报

普通 客运航班 VA.HKRSCOC.COM
------------------------------------------------------------
航班号 CHH0256 FOQA 标准 1800 分 类型 IFR 飞行
巡航高度 37100 执飞机型 B772LR 注册编号 CHH-0332
计划日期 2022 / 08 / 15 计划出港 UTC 15:15 计划到港 UTC +1 00:16
备降机场 飞行距离 4503 飞行时间 11.01
出发机场 EDDF〔法兰克福国际机场〕➤ ZUGY〔贵阳龙洞堡国际机场〕 到达机场
------------------------------------------------------------
EDDF 150550Z 22009KT 180V240 9999 -SHRA SCT060TCU 22/14 Q1005 TEMPO SHRA
ZUGY 150500Z 21002MPS 130V270 9999 BKN026 33/19 Q1012 NOSIG
------------------------------------------------------------
EDDF SULUS L984 OKG DCT LEGAZ DCT LAGAR N871 POLON Z169 GERVI P851 RAVOK Z860 TOBLO M55 ABUTO L749 NEDKU M987 RULAT T764 GITEK L993 TUSEP N126 RULAD A460 XKC L888 SADAN Y1 OMBON B330 QNX ZUGY
------------------------------------------------------------
飞机计划 5151 OPERATIONAL FLIGHT PLAN (仅供参考 )
------------------------------------------------------------
燃料 时间 距离 NAM 计划 组织
准备 238900 11.01 4503 4506 0385 -
出港 236511 - - - 0385 -
离场 217399 - - - 0385 -
巡航 193509 - - - 0385 -
进港 59725 - - - 0385 -
到港 43002 - - - 0385 -
复飞 21501 - - - 0385 -
TOTAL 238900 11.01 4503 4506 0385 COC
 

Route Map 航路地图

打开文件 Reports_1970/.xml 失败!